createdAt,value
2023-05-24T00:00:30.996Z,3.97
2023-05-24T00:02:58.942Z,3.83
2023-05-24T00:05:26.866Z,4.40
2023-05-24T00:07:54.713Z,3.77
2023-05-24T00:10:24.568Z,3.70
2023-05-24T00:12:52.264Z,4.13
2023-05-24T00:15:20.066Z,4.17
2023-05-24T00:17:47.865Z,3.80
2023-05-24T00:20:15.779Z,3.80
2023-05-24T00:22:43.575Z,3.80
2023-05-24T00:25:11.280Z,3.90
2023-05-24T00:27:40.403Z,3.77
2023-05-24T00:30:09.035Z,3.73
2023-05-24T00:32:36.909Z,4.50
2023-05-24T00:35:05.195Z,4.00
2023-05-24T00:37:33.000Z,3.57
2023-05-24T00:40:00.774Z,4.10
2023-05-24T00:42:28.443Z,3.97
2023-05-24T00:44:57.460Z,3.87
2023-05-24T00:47:25.408Z,4.30
2023-05-24T00:49:53.221Z,3.93
2023-05-24T00:52:21.491Z,3.80
2023-05-24T00:54:49.820Z,3.70
2023-05-24T00:57:18.949Z,3.50
2023-05-24T00:59:46.961Z,4.37
2023-05-24T01:02:17.104Z,4.50
2023-05-24T01:04:45.201Z,4.60
2023-05-24T01:07:22.970Z,4.07
2023-05-24T01:10:02.672Z,3.80
2023-05-24T01:12:38.121Z,3.50
2023-05-24T01:15:17.608Z,4.10
2023-05-24T01:17:55.719Z,4.00
2023-05-24T01:20:25.806Z,4.80
2023-05-24T01:23:14.875Z,3.63
2023-05-24T01:25:50.919Z,4.00
2023-05-24T01:28:21.663Z,3.57
2023-05-24T01:30:49.843Z,5.23
2023-05-24T01:33:17.896Z,3.60
2023-05-24T01:35:45.594Z,4.47
2023-05-24T01:38:14.360Z,3.97
2023-05-24T01:40:42.557Z,4.00
2023-05-24T01:43:16.882Z,4.00
2023-05-24T01:45:54.121Z,4.30
2023-05-24T01:48:32.731Z,4.50
2023-05-24T01:51:01.787Z,4.20
2023-05-24T01:53:35.248Z,4.70
2023-05-24T01:56:06.439Z,4.70
2023-05-24T01:58:35.623Z,4.50
2023-05-24T02:01:05.005Z,3.93
2023-05-24T02:03:33.188Z,4.10
2023-05-24T02:06:00.880Z,3.77
2023-05-24T02:08:28.628Z,4.50
2023-05-24T02:10:56.367Z,4.03
2023-05-24T02:13:24.154Z,3.60
2023-05-24T02:15:53.698Z,4.90
2023-05-24T02:18:22.830Z,4.83
2023-05-24T02:20:50.916Z,4.00
2023-05-24T02:23:18.658Z,4.13
2023-05-24T02:25:46.396Z,3.90
2023-05-24T02:28:14.181Z,4.40
2023-05-24T02:30:44.729Z,4.60
2023-05-24T02:33:13.247Z,5.00
2023-05-24T02:35:42.473Z,3.93
2023-05-24T02:38:10.276Z,4.30
2023-05-24T02:40:38.135Z,4.93
2023-05-24T02:43:05.998Z,4.40
2023-05-24T02:45:33.996Z,4.63
2023-05-24T02:48:01.781Z,4.83
2023-05-24T02:50:29.555Z,4.60
2023-05-24T02:52:58.655Z,4.83
2023-05-24T02:55:26.948Z,4.40
2023-05-24T02:57:54.945Z,4.40
2023-05-24T03:00:22.975Z,4.07
2023-05-24T03:02:52.490Z,4.60
2023-05-24T03:05:20.445Z,4.97
2023-05-24T03:07:48.191Z,4.57
2023-05-24T03:10:17.576Z,4.27
2023-05-24T03:12:45.349Z,4.40
2023-05-24T03:15:13.152Z,4.57
2023-05-24T03:17:41.226Z,4.70
2023-05-24T03:20:11.714Z,4.70
2023-05-24T03:22:39.669Z,4.60
2023-05-24T03:25:08.857Z,4.40
2023-05-24T03:27:38.047Z,4.90
2023-05-24T03:30:07.036Z,4.67
2023-05-24T03:32:34.810Z,4.80
2023-05-24T03:35:02.743Z,4.60
2023-05-24T03:37:30.536Z,4.23
2023-05-24T03:39:58.281Z,4.63
2023-05-24T03:42:26.028Z,4.30
2023-05-24T03:44:55.156Z,5.00
2023-05-24T03:47:22.927Z,4.90
2023-05-24T03:49:51.243Z,4.50
2023-05-24T03:52:19.017Z,5.13
2023-05-24T03:54:46.908Z,4.53
2023-05-24T03:57:14.914Z,4.90
2023-05-24T03:59:42.734Z,4.53
2023-05-24T04:02:11.964Z,4.47
2023-05-24T04:04:42.236Z,4.80
2023-05-24T04:07:11.894Z,5.27
2023-05-24T04:09:40.374Z,3.70
2023-05-24T04:12:08.215Z,5.20
2023-05-24T04:14:36.258Z,4.70
2023-05-24T04:17:05.943Z,5.30
2023-05-24T04:19:35.176Z,6.13
2023-05-24T04:22:03.029Z,4.70
2023-05-24T04:24:30.834Z,5.83
2023-05-24T04:26:59.259Z,4.33
2023-05-24T04:29:27.837Z,5.10
2023-05-24T04:31:56.427Z,5.37
2023-05-24T04:34:24.162Z,5.70
2023-05-24T04:36:53.713Z,5.13
2023-05-24T04:39:22.371Z,5.20
2023-05-24T04:41:51.182Z,5.20
2023-05-24T04:44:19.016Z,5.27
2023-05-24T04:46:48.387Z,5.60
2023-05-24T04:49:16.555Z,5.83
2023-05-24T04:51:45.103Z,5.50
2023-05-24T04:54:14.966Z,4.90
2023-05-24T04:56:43.419Z,4.83
2023-05-24T04:59:11.985Z,5.47
2023-05-24T05:01:40.870Z,5.80
2023-05-24T05:04:09.576Z,4.73
2023-05-24T05:06:40.574Z,4.67
2023-05-24T05:09:10.632Z,5.60
2023-05-24T05:11:40.297Z,4.70
2023-05-24T05:14:09.772Z,5.20
2023-05-24T05:16:37.900Z,5.20
2023-05-24T05:19:07.034Z,5.30
2023-05-24T05:21:35.230Z,5.77
2023-05-24T05:24:04.116Z,4.90
2023-05-24T05:26:32.839Z,5.23
2023-05-24T05:29:02.256Z,5.47
2023-05-24T05:31:31.045Z,5.93
2023-05-24T05:33:59.072Z,5.10
2023-05-24T05:36:27.093Z,5.30
2023-05-24T05:38:54.854Z,5.90
2023-05-24T05:41:22.663Z,5.80
2023-05-24T05:43:50.504Z,5.00
2023-05-24T05:46:21.476Z,5.40
2023-05-24T05:48:49.371Z,4.97
2023-05-24T05:51:17.056Z,6.40
2023-05-24T05:53:44.830Z,5.50
2023-05-24T05:56:12.597Z,4.73
2023-05-24T05:58:40.328Z,4.90
2023-05-24T06:01:08.238Z,4.70
2023-05-24T06:03:37.368Z,6.13
2023-05-24T06:06:05.557Z,5.27
2023-05-24T06:08:35.156Z,4.93
2023-05-24T06:11:03.146Z,5.00
2023-05-24T06:13:31.396Z,4.63
2023-05-24T06:15:59.992Z,4.50
2023-05-24T06:18:30.385Z,5.30
2023-05-24T06:20:59.651Z,4.50
2023-05-24T06:23:27.455Z,5.33
2023-05-24T06:25:56.179Z,5.47
2023-05-24T06:28:23.993Z,5.00
2023-05-24T06:30:51.904Z,5.20
2023-05-24T06:33:19.713Z,4.93
2023-05-24T06:35:47.544Z,5.30
2023-05-24T06:38:17.732Z,5.67
2023-05-24T06:40:45.550Z,5.03
2023-05-24T06:43:13.355Z,4.97
2023-05-24T06:45:41.591Z,5.20
2023-05-24T06:48:09.436Z,5.13
2023-05-24T06:50:40.325Z,5.20
2023-05-24T06:53:10.402Z,5.20
2023-05-24T06:55:39.536Z,5.03
2023-05-24T06:58:07.844Z,5.37
2023-05-24T07:00:35.732Z,5.33
2023-05-24T07:03:03.696Z,4.90
2023-05-24T07:05:31.591Z,5.67
2023-05-24T07:07:59.431Z,5.73
2023-05-24T07:10:27.208Z,5.67
2023-05-24T07:12:56.567Z,5.60
2023-05-24T07:15:24.372Z,5.53
2023-05-24T07:17:53.249Z,5.23
2023-05-24T07:20:21.461Z,5.40
2023-05-24T07:22:49.435Z,5.27
2023-05-24T07:25:17.439Z,5.30
2023-05-24T07:27:45.194Z,4.60
2023-05-24T07:30:30.634Z,4.87
2023-05-24T07:33:00.028Z,5.23
2023-05-24T07:35:28.702Z,5.90
2023-05-24T07:37:56.530Z,5.20
2023-05-24T07:40:24.515Z,6.17
2023-05-24T07:42:52.376Z,5.23
2023-05-24T07:45:21.650Z,5.43
2023-05-24T07:47:49.535Z,5.00
2023-05-24T07:50:17.980Z,4.57
2023-05-24T07:52:45.844Z,5.63
2023-05-24T07:55:14.548Z,5.30
2023-05-24T07:57:42.812Z,5.03
2023-05-24T08:00:14.493Z,5.30
2023-05-24T08:02:46.439Z,5.77
2023-05-24T08:05:15.505Z,6.10
2023-05-24T08:07:43.348Z,5.70
2023-05-24T08:10:12.789Z,5.87
2023-05-24T08:12:40.889Z,6.10
2023-05-24T08:15:09.497Z,4.97
2023-05-24T08:17:37.372Z,5.90
2023-05-24T08:20:09.048Z,5.73
2023-05-24T08:22:37.368Z,5.40
2023-05-24T08:25:06.365Z,5.47
2023-05-24T08:27:34.240Z,5.20
2023-05-24T08:30:02.117Z,5.13
2023-05-24T08:32:30.067Z,5.47
2023-05-24T08:35:06.819Z,5.80
2023-05-24T08:37:40.075Z,5.40
2023-05-24T08:40:10.067Z,5.60
2023-05-24T08:42:39.861Z,5.93
2023-05-24T08:45:12.131Z,5.87
2023-05-24T08:47:40.703Z,5.53
2023-05-24T08:50:09.560Z,6.10
2023-05-24T08:52:37.774Z,5.20
2023-05-24T08:55:07.983Z,5.87
2023-05-24T08:57:39.405Z,5.17
2023-05-24T09:00:10.198Z,5.60
2023-05-24T09:02:39.914Z,4.80
2023-05-24T09:05:11.688Z,5.77
2023-05-24T09:07:39.578Z,5.50
2023-05-24T09:10:10.609Z,5.17
2023-05-24T09:12:39.850Z,5.80
2023-05-24T09:15:09.952Z,5.43
2023-05-24T09:17:38.966Z,5.53
2023-05-24T09:20:10.132Z,5.13
2023-05-24T09:22:41.105Z,7.27
2023-05-24T09:25:14.433Z,5.80
2023-05-24T09:27:42.449Z,4.73
2023-05-24T09:30:12.771Z,5.30
2023-05-24T09:32:41.341Z,6.60
2023-05-24T09:35:10.990Z,6.00
2023-05-24T09:37:40.395Z,5.90
2023-05-24T09:40:19.541Z,4.93
2023-05-24T09:42:49.013Z,5.10
2023-05-24T09:45:17.709Z,6.27
2023-05-24T09:47:46.818Z,6.00
2023-05-24T09:50:17.989Z,5.97
2023-05-24T09:52:46.337Z,4.83
2023-05-24T09:55:16.508Z,5.07
2023-05-24T09:57:46.845Z,5.93
2023-05-24T10:00:23.338Z,5.17
2023-05-24T10:03:02.866Z,5.90
2023-05-24T10:05:32.258Z,6.03
2023-05-24T10:08:01.658Z,5.07
2023-05-24T10:10:33.049Z,5.77
2023-05-24T10:13:02.630Z,5.40
2023-05-24T10:15:31.365Z,5.50
2023-05-24T10:18:00.494Z,5.13
2023-05-24T10:20:28.397Z,5.77
2023-05-24T10:23:01.846Z,6.50
2023-05-24T10:25:36.064Z,6.60
2023-05-24T10:28:08.586Z,6.50
2023-05-24T10:30:43.393Z,6.17
2023-05-24T10:33:14.150Z,5.83
2023-05-24T10:35:43.262Z,6.60
2023-05-24T10:38:11.744Z,6.10
2023-05-24T10:40:44.318Z,5.97
2023-05-24T10:43:12.100Z,6.43
2023-05-24T10:45:42.031Z,6.07
2023-05-24T10:48:22.505Z,5.77
2023-05-24T10:50:51.273Z,5.83
2023-05-24T10:53:22.437Z,5.17
2023-05-24T10:55:56.337Z,6.53
2023-05-24T10:58:30.610Z,5.60
2023-05-24T11:00:58.536Z,6.50
2023-05-24T11:03:29.162Z,6.00
2023-05-24T11:05:57.057Z,5.00
2023-05-24T11:08:26.728Z,4.93
2023-05-24T11:11:22.968Z,6.47
2023-05-24T11:13:58.947Z,5.83
2023-05-24T11:16:39.291Z,5.40
2023-05-24T11:19:18.488Z,4.97
2023-05-24T11:21:47.642Z,5.03
2023-05-24T11:24:17.668Z,5.73
2023-05-24T11:26:47.035Z,5.50
2023-05-24T11:29:17.587Z,5.30
2023-05-24T11:31:52.685Z,4.87
2023-05-24T11:34:21.167Z,5.23
2023-05-24T11:36:50.502Z,4.90
2023-05-24T11:39:18.330Z,4.97
2023-05-24T11:41:48.675Z,5.53
2023-05-24T11:44:18.844Z,5.47
2023-05-24T11:46:47.465Z,5.40
2023-05-24T11:49:16.973Z,4.40
2023-05-24T11:51:45.078Z,5.33
2023-05-24T11:54:12.850Z,5.57
2023-05-24T11:56:41.226Z,5.07
2023-05-24T11:59:16.584Z,4.90
2023-05-24T12:01:45.367Z,5.13
2023-05-24T12:04:13.512Z,4.77
2023-05-24T12:06:42.854Z,5.30
2023-05-24T12:09:13.481Z,4.80
2023-05-24T12:11:42.467Z,4.60
2023-05-24T12:14:14.781Z,4.27
2023-05-24T12:16:43.722Z,4.60
2023-05-24T12:19:31.781Z,4.53
2023-05-24T12:22:01.944Z,4.07
2023-05-24T12:24:32.193Z,5.10
2023-05-24T12:27:02.704Z,4.40
2023-05-24T12:29:36.475Z,4.80
2023-05-24T12:32:05.014Z,4.13
2023-05-24T12:34:33.533Z,4.30
2023-05-24T12:37:01.733Z,4.27
2023-05-24T12:39:31.782Z,4.10
2023-05-24T12:42:01.661Z,4.73
2023-05-24T12:44:31.317Z,4.30
2023-05-24T12:47:00.978Z,4.23
2023-05-24T12:49:28.894Z,4.60
2023-05-24T12:51:57.860Z,4.80
2023-05-24T12:54:27.687Z,4.80
2023-05-24T12:56:57.561Z,4.03
2023-05-24T12:59:25.968Z,4.00
2023-05-24T13:01:54.052Z,4.33
2023-05-24T13:04:26.108Z,4.30
2023-05-24T13:06:54.104Z,4.60
2023-05-24T13:09:23.301Z,4.93
2023-05-24T13:11:52.338Z,5.40
2023-05-24T13:14:20.418Z,4.10
2023-05-24T13:16:49.560Z,4.23
2023-05-24T13:19:17.772Z,4.53
2023-05-24T13:21:47.062Z,4.70
2023-05-24T13:24:17.241Z,4.30
2023-05-24T13:26:45.095Z,4.10
2023-05-24T13:31:44.859Z,4.70
2023-05-24T13:34:13.062Z,4.73
2023-05-24T13:36:42.026Z,4.67
2023-05-24T13:41:42.256Z,4.50
2023-05-24T13:44:10.828Z,4.80
2023-05-24T13:46:39.186Z,4.53
2023-05-24T13:49:07.807Z,5.00
2023-05-24T13:51:35.977Z,4.90
2023-05-24T13:54:04.973Z,4.80
2023-05-24T13:56:34.531Z,4.07
2023-05-24T13:59:03.469Z,4.50
2023-05-24T14:01:32.150Z,4.27
2023-05-24T14:04:00.098Z,4.20
2023-05-24T14:06:27.884Z,3.60
2023-05-24T14:08:55.919Z,3.80
2023-05-24T14:11:24.836Z,4.50
2023-05-24T14:16:26.228Z,3.90
2023-05-24T14:18:54.068Z,3.60
2023-05-24T14:21:23.337Z,4.20
2023-05-24T14:23:51.542Z,4.00
2023-05-24T14:26:20.321Z,3.90
2023-05-24T14:28:48.080Z,4.10
2023-05-24T14:31:17.242Z,4.23
2023-05-24T14:33:45.348Z,3.90
2023-05-24T14:36:13.128Z,3.43
2023-05-24T14:38:40.920Z,4.27
2023-05-24T14:41:09.322Z,3.90
2023-05-24T14:43:37.892Z,3.80
2023-05-24T14:46:05.992Z,3.80
2023-05-24T14:48:35.291Z,4.00
2023-05-24T14:51:03.052Z,3.53
2023-05-24T14:53:30.799Z,3.57
2023-05-24T14:55:58.835Z,3.87
2023-05-24T14:58:27.288Z,4.10
2023-05-24T15:00:55.158Z,3.80
2023-05-24T15:03:23.331Z,3.90
2023-05-24T15:05:53.212Z,3.93
2023-05-24T15:08:20.992Z,3.33
2023-05-24T15:10:48.928Z,4.13
2023-05-24T15:13:17.841Z,3.80
2023-05-24T15:15:45.857Z,3.60
2023-05-24T15:18:13.630Z,3.70
2023-05-24T15:20:41.942Z,3.80
2023-05-24T15:23:11.286Z,4.23
2023-05-24T15:25:39.144Z,3.30
2023-05-24T15:28:07.294Z,3.50
2023-05-24T15:30:35.058Z,3.63
2023-05-24T15:33:02.927Z,2.90
2023-05-24T15:35:30.858Z,3.57
2023-05-24T15:37:58.789Z,4.40
2023-05-24T15:40:27.999Z,3.63
2023-05-24T15:42:55.745Z,3.50
2023-05-24T15:45:23.629Z,3.67
2023-05-24T15:47:51.790Z,3.20
2023-05-24T15:50:28.513Z,3.03
2023-05-24T15:53:00.084Z,3.80
2023-05-24T15:55:29.573Z,3.50
2023-05-24T15:57:58.903Z,3.40
2023-05-24T16:00:26.996Z,3.43
2023-05-24T16:02:56.928Z,4.00
2023-05-24T16:05:24.986Z,3.73
2023-05-24T16:07:52.870Z,4.10
2023-05-24T16:10:20.553Z,3.30
2023-05-24T16:12:49.645Z,3.90
2023-05-24T16:15:17.575Z,2.77
2023-05-24T16:17:45.740Z,3.63
2023-05-24T16:20:13.617Z,3.20
2023-05-24T16:22:48.776Z,3.30
2023-05-24T16:25:17.302Z,3.93
2023-05-24T16:27:45.117Z,3.30
2023-05-24T16:30:15.178Z,3.00
2023-05-24T16:32:45.182Z,3.30
2023-05-24T16:35:13.017Z,3.30
2023-05-24T16:37:40.945Z,5.03
2023-05-24T16:40:09.797Z,4.43
2023-05-24T16:42:37.588Z,3.90
2023-05-24T16:45:36.030Z,6.07
2023-05-24T16:48:07.258Z,4.20
2023-05-24T16:50:35.936Z,3.53
2023-05-24T16:53:05.334Z,4.20
2023-05-24T16:55:34.338Z,3.33
2023-05-24T16:58:02.133Z,3.53
2023-05-24T17:00:29.807Z,3.20
2023-05-24T17:02:59.340Z,3.80
2023-05-24T17:05:28.635Z,2.93
2023-05-24T17:07:56.573Z,3.03
2023-05-24T17:10:24.468Z,2.90
2023-05-24T17:12:53.195Z,3.10
2023-05-24T17:15:20.988Z,3.60
2023-05-24T17:17:48.763Z,3.40
2023-05-24T17:20:16.704Z,3.60
2023-05-24T17:22:46.102Z,3.57
2023-05-24T17:25:13.928Z,3.27
2023-05-24T17:27:41.639Z,3.07
2023-05-24T17:30:10.087Z,3.73
2023-05-24T17:32:37.968Z,3.53
2023-05-24T17:35:06.563Z,3.30
2023-05-24T17:37:34.297Z,3.07
2023-05-24T17:40:03.538Z,4.57
2023-05-24T17:42:31.205Z,2.97
2023-05-24T17:44:59.041Z,3.40
2023-05-24T17:47:26.792Z,3.10
2023-05-24T17:49:54.586Z,3.47
2023-05-24T17:52:22.429Z,3.50
2023-05-24T17:54:50.335Z,3.00
2023-05-24T17:57:19.492Z,3.53
2023-05-24T17:59:47.171Z,2.77
2023-05-24T18:02:14.878Z,2.97
2023-05-24T18:04:42.610Z,2.90
2023-05-24T18:07:10.680Z,3.17
2023-05-24T18:09:38.414Z,2.70
2023-05-24T18:12:06.867Z,3.43
2023-05-24T18:14:35.992Z,3.10
2023-05-24T18:17:03.825Z,3.30
2023-05-24T18:19:31.742Z,2.67
2023-05-24T18:21:59.503Z,2.50
2023-05-24T18:24:27.246Z,2.83
2023-05-24T18:26:55.099Z,2.80
2023-05-24T18:29:22.847Z,2.80
2023-05-24T18:31:52.549Z,2.57
2023-05-24T18:34:20.541Z,2.70
2023-05-24T18:36:48.275Z,2.17
2023-05-24T18:39:16.082Z,3.20
2023-05-24T18:41:43.791Z,2.77
2023-05-24T18:44:11.771Z,3.13
2023-05-24T18:46:39.505Z,2.87
2023-05-24T18:49:10.967Z,2.30
2023-05-24T18:51:38.933Z,2.70
2023-05-24T18:54:06.787Z,3.07
2023-05-24T18:56:34.471Z,2.20
2023-05-24T18:59:02.214Z,2.07
2023-05-24T19:01:30.050Z,2.00
2023-05-24T19:03:58.046Z,2.83
2023-05-24T19:06:27.177Z,2.63
2023-05-24T19:08:54.905Z,1.97
2023-05-24T19:11:23.053Z,2.03
2023-05-24T19:13:50.763Z,2.00
2023-05-24T19:16:18.561Z,2.40
2023-05-24T19:18:46.741Z,2.23
2023-05-24T19:21:14.985Z,2.40
2023-05-24T19:23:44.082Z,2.30
2023-05-24T19:26:12.035Z,2.33
2023-05-24T19:28:41.806Z,2.90
2023-05-24T19:31:09.506Z,2.90
2023-05-24T19:33:45.369Z,1.87
2023-05-24T19:36:20.996Z,2.10
2023-05-24T19:38:50.357Z,2.30
2023-05-24T19:41:18.243Z,2.17
2023-05-24T19:43:45.986Z,2.10
2023-05-24T19:46:14.777Z,2.63
2023-05-24T19:48:42.562Z,2.30
2023-05-24T19:51:12.764Z,2.10
2023-05-24T19:53:40.501Z,2.80
2023-05-24T19:56:09.767Z,2.30
2023-05-24T19:58:37.504Z,1.90
2023-05-24T20:01:05.922Z,2.37
2023-05-24T20:03:35.171Z,2.10
2023-05-24T20:06:03.133Z,2.37
2023-05-24T20:08:31.149Z,1.90
2023-05-24T20:10:58.939Z,2.47
2023-05-24T20:13:28.002Z,2.47
2023-05-24T20:15:56.330Z,2.67
2023-05-24T20:18:24.216Z,2.10
2023-05-24T20:20:51.979Z,1.90
2023-05-24T20:23:19.694Z,2.30
2023-05-24T20:25:47.404Z,1.63
2023-05-24T20:28:28.942Z,1.97
2023-05-24T20:30:59.706Z,2.27
2023-05-24T20:33:27.451Z,2.00
2023-05-24T20:35:55.560Z,3.00
2023-05-24T20:38:23.691Z,2.27
2023-05-24T20:40:51.484Z,2.33
2023-05-24T20:43:19.270Z,2.30
2023-05-24T20:45:47.251Z,3.00
2023-05-24T20:48:16.544Z,2.03
2023-05-24T20:50:44.339Z,2.80
2023-05-24T20:53:12.114Z,2.20
2023-05-24T20:55:39.815Z,2.47
2023-05-24T20:58:07.871Z,2.87
2023-05-24T21:00:36.622Z,2.30
2023-05-24T21:03:05.729Z,2.43
2023-05-24T21:05:36.351Z,2.20
2023-05-24T21:08:04.156Z,2.50
2023-05-24T21:10:32.367Z,2.20
2023-05-24T21:13:00.430Z,2.63
2023-05-24T21:15:28.363Z,2.80
2023-05-24T21:17:56.077Z,2.23
2023-05-24T21:20:24.320Z,2.27
2023-05-24T21:22:53.530Z,2.80
2023-05-24T21:25:21.251Z,2.80
2023-05-24T21:27:49.038Z,2.63
2023-05-24T21:30:16.793Z,2.83
2023-05-24T21:32:44.604Z,2.93
2023-05-24T21:35:12.915Z,2.50
2023-05-24T21:37:40.810Z,2.80
2023-05-24T21:40:11.040Z,2.53
2023-05-24T21:42:38.781Z,2.50
2023-05-24T21:45:07.586Z,3.10
2023-05-24T21:47:36.494Z,3.30
2023-05-24T21:50:04.495Z,2.60
2023-05-24T21:52:32.330Z,2.40
2023-05-24T21:55:00.319Z,3.10
2023-05-24T21:57:29.741Z,2.53
2023-05-24T21:59:57.744Z,3.53
2023-05-24T22:02:25.524Z,3.10
2023-05-24T22:04:53.395Z,2.70
2023-05-24T22:07:21.145Z,2.83
2023-05-24T22:09:49.121Z,3.20
2023-05-24T22:12:17.529Z,3.00
2023-05-24T22:14:46.793Z,2.57
2023-05-24T22:17:14.847Z,3.30
2023-05-24T22:19:42.637Z,2.77
2023-05-24T22:22:12.505Z,2.60
2023-05-24T22:24:40.624Z,2.83
2023-05-24T22:27:09.780Z,2.87
2023-05-24T22:29:37.631Z,2.83
2023-05-24T22:32:06.991Z,2.97
2023-05-24T22:34:34.961Z,2.80
2023-05-24T22:37:02.718Z,3.10
2023-05-24T22:39:30.536Z,2.97
2023-05-24T22:41:58.365Z,2.90
2023-05-24T22:44:26.794Z,3.30
2023-05-24T22:46:54.833Z,3.03
2023-05-24T22:49:24.022Z,2.97
2023-05-24T22:51:53.377Z,3.00
2023-05-24T22:54:21.238Z,3.03
2023-05-24T22:56:49.208Z,3.10
2023-05-24T22:59:16.982Z,3.40
2023-05-24T23:01:45.197Z,3.70
2023-05-24T23:04:21.262Z,3.33
2023-05-24T23:06:53.576Z,3.53
2023-05-24T23:09:28.904Z,2.57
2023-05-24T23:11:58.426Z,3.17
2023-05-24T23:14:30.159Z,4.23
2023-05-24T23:17:02.524Z,3.77
2023-05-24T23:19:31.073Z,2.90
2023-05-24T23:22:00.573Z,3.40
2023-05-24T23:24:28.280Z,2.70
2023-05-24T23:26:57.099Z,2.97
2023-05-24T23:29:24.907Z,2.93
2023-05-24T23:31:52.641Z,3.40
2023-05-24T23:34:20.397Z,3.23
2023-05-24T23:36:48.096Z,2.50
2023-05-24T23:39:17.171Z,3.23
2023-05-24T23:41:45.001Z,2.83
2023-05-24T23:44:12.671Z,2.50
2023-05-24T23:46:41.995Z,3.53
2023-05-24T23:49:09.740Z,3.23
2023-05-24T23:51:37.723Z,3.00
2023-05-24T23:54:05.583Z,3.25
2023-05-24T23:56:34.679Z,2.73
2023-05-24T23:59:02.652Z,3.07
